createdAt,value
2019-04-07T00:00:44.642Z,11.90
2019-04-07T00:03:17.346Z,11.80
2019-04-07T00:05:47.422Z,11.90
2019-04-07T00:08:16.974Z,11.80
2019-04-07T00:10:46.866Z,11.90
2019-04-07T00:13:17.052Z,11.80
2019-04-07T00:15:46.457Z,11.80
2019-04-07T00:18:15.702Z,11.80
2019-04-07T00:20:44.964Z,11.80
2019-04-07T00:23:15.115Z,11.70
2019-04-07T00:25:44.383Z,11.70
2019-04-07T00:28:13.571Z,11.60
2019-04-07T00:30:42.815Z,11.60
2019-04-07T00:33:12.159Z,11.60
2019-04-07T00:35:41.685Z,11.60
2019-04-07T00:38:11.155Z,11.50
2019-04-07T00:40:41.177Z,11.50
2019-04-07T00:43:10.875Z,11.50
2019-04-07T00:45:40.548Z,11.50
2019-04-07T00:48:10.544Z,11.40
2019-04-07T00:50:40.523Z,11.40
2019-04-07T00:53:10.985Z,11.30
2019-04-07T00:55:40.805Z,11.20
2019-04-07T00:58:11.535Z,11.00
2019-04-07T01:00:42.445Z,10.90
2019-04-07T01:03:12.273Z,10.70
2019-04-07T01:05:43.387Z,10.60
2019-04-07T01:08:12.854Z,10.50
2019-04-07T01:10:42.726Z,10.40
2019-04-07T01:13:12.012Z,10.40
2019-04-07T01:15:41.715Z,10.30
2019-04-07T01:18:11.314Z,10.20
2019-04-07T01:20:40.572Z,10.20
2019-04-07T01:23:10.617Z,10.20
2019-04-07T01:25:41.119Z,10.20
2019-04-07T01:28:11.013Z,10.30
2019-04-07T01:30:40.412Z,10.30
2019-04-07T01:33:10.232Z,10.30
2019-04-07T01:35:47.290Z,10.30
2019-04-07T01:38:11.347Z,10.40
2019-04-07T01:40:42.307Z,10.50
2019-04-07T01:43:21.719Z,10.60
2019-04-07T01:46:10.060Z,10.60
2019-04-07T01:48:58.596Z,10.60
2019-04-07T01:52:02.027Z,10.60
2019-04-07T01:54:38.411Z,10.60
2019-04-07T01:57:24.914Z,10.50
2019-04-07T02:00:16.460Z,10.10
2019-04-07T02:03:05.008Z,9.80
2019-04-07T02:05:58.443Z,9.60
2019-04-07T02:08:47.510Z,9.50
2019-04-07T02:11:36.052Z,9.50
2019-04-07T02:14:27.415Z,9.60
2019-04-07T02:17:14.684Z,9.70
2019-04-07T02:19:53.108Z,9.80
2019-04-07T02:22:50.900Z,9.80
2019-04-07T02:25:38.024Z,9.80
2019-04-07T02:28:32.007Z,9.80
2019-04-07T02:31:19.247Z,9.80
2019-04-07T02:34:13.724Z,9.70
2019-04-07T02:37:04.902Z,9.70
2019-04-07T02:39:56.768Z,9.70
2019-04-07T02:42:43.658Z,9.80
2019-04-07T02:45:30.211Z,9.80
2019-04-07T02:48:22.094Z,9.80
2019-04-07T02:51:20.125Z,9.80
2019-04-07T02:53:59.369Z,9.90
2019-04-07T02:56:52.206Z,9.80
2019-04-07T02:59:46.624Z,9.80
2019-04-07T03:02:43.780Z,9.80
2019-04-07T03:05:21.040Z,9.80
2019-04-07T03:08:09.187Z,9.80
2019-04-07T03:11:02.065Z,9.70
2019-04-07T03:13:49.129Z,9.70
2019-04-07T03:16:32.525Z,9.60
2019-04-07T03:19:26.084Z,9.60
2019-04-07T03:22:11.015Z,9.60
2019-04-07T03:24:49.754Z,9.50
2019-04-07T03:27:36.821Z,9.50
2019-04-07T03:30:41.215Z,9.40
2019-04-07T03:33:30.286Z,9.30
2019-04-07T03:36:20.536Z,9.30
2019-04-07T03:39:07.010Z,9.30
2019-04-07T03:41:44.898Z,9.20
2019-04-07T03:44:20.326Z,9.20
2019-04-07T03:46:59.987Z,9.20
2019-04-07T03:49:52.935Z,9.20
2019-04-07T03:52:36.408Z,9.20
2019-04-07T03:55:22.769Z,9.20
2019-04-07T03:58:10.034Z,9.10
2019-04-07T04:01:33.163Z,9.10
2019-04-07T04:04:16.724Z,9.10
2019-04-07T04:07:20.658Z,9.10
2019-04-07T04:09:47.420Z,9.00
2019-04-07T04:12:35.695Z,9.00
2019-04-07T04:15:22.233Z,9.00
2019-04-07T04:17:51.742Z,9.00
2019-04-07T04:20:21.624Z,9.10
2019-04-07T04:22:51.011Z,9.10
2019-04-07T04:25:21.260Z,9.00
2019-04-07T04:27:50.888Z,8.90
2019-04-07T04:30:21.176Z,8.80
2019-04-07T04:32:50.875Z,8.70
2019-04-07T04:35:20.108Z,8.70
2019-04-07T04:37:52.337Z,8.70
2019-04-07T04:40:20.769Z,8.70
2019-04-07T04:42:50.895Z,8.80
2019-04-07T04:45:20.914Z,8.80
2019-04-07T04:47:50.131Z,8.90
2019-04-07T04:50:19.739Z,8.90
2019-04-07T04:52:49.008Z,9.00
2019-04-07T04:55:18.922Z,9.00
2019-04-07T04:57:48.600Z,9.00
2019-04-07T05:00:18.741Z,8.90
2019-04-07T05:02:49.359Z,8.90
2019-04-07T05:05:18.929Z,8.90
2019-04-07T05:07:57.813Z,8.90
2019-04-07T05:10:19.383Z,8.80
2019-04-07T05:12:48.812Z,8.80
2019-04-07T05:15:18.151Z,8.80
2019-04-07T05:17:47.700Z,8.70
2019-04-07T05:20:17.318Z,8.70
2019-04-07T05:22:47.497Z,8.70
2019-04-07T05:25:17.364Z,8.70
2019-04-07T05:27:46.832Z,8.70
2019-04-07T05:30:16.793Z,8.70
2019-04-07T05:32:46.765Z,8.70
2019-04-07T05:35:16.204Z,8.70
2019-04-07T05:37:45.944Z,8.70
2019-04-07T05:40:15.527Z,8.70
2019-04-07T05:42:45.471Z,8.70
2019-04-07T05:45:15.007Z,8.80
2019-04-07T05:47:48.728Z,8.80
2019-04-07T05:50:15.505Z,8.90
2019-04-07T05:52:44.806Z,9.10
2019-04-07T05:55:14.266Z,9.20
2019-04-07T05:57:44.142Z,9.30
2019-04-07T06:00:16.557Z,9.30
2019-04-07T06:02:46.053Z,9.40
2019-04-07T06:05:16.208Z,9.50
2019-04-07T06:07:47.014Z,9.50
2019-04-07T06:10:16.642Z,9.60
2019-04-07T06:12:47.360Z,9.70
2019-04-07T06:15:20.965Z,9.70
2019-04-07T06:17:49.017Z,9.80
2019-04-07T06:20:18.932Z,9.80
2019-04-07T06:22:52.733Z,9.90
2019-04-07T06:25:19.492Z,9.90
2019-04-07T06:27:48.972Z,10.00
2019-04-07T06:30:19.141Z,10.00
2019-04-07T06:32:48.503Z,10.10
2019-04-07T06:35:18.336Z,10.10
2019-04-07T06:37:47.718Z,10.20
2019-04-07T06:40:20.491Z,10.30
2019-04-07T06:42:48.793Z,10.40
2019-04-07T06:45:22.752Z,10.50
2019-04-07T06:47:56.195Z,10.60
2019-04-07T06:50:49.445Z,10.70
2019-04-07T06:53:19.825Z,10.80
2019-04-07T06:56:13.196Z,10.90
2019-04-07T06:59:19.925Z,11.00
2019-04-07T07:02:07.358Z,11.00
2019-04-07T07:04:59.357Z,11.10
2019-04-07T07:07:49.721Z,11.20
2019-04-07T07:10:35.566Z,11.30
2019-04-07T07:13:15.521Z,11.40
2019-04-07T07:16:01.653Z,11.40
2019-04-07T07:18:48.751Z,11.50
2019-04-07T07:21:38.703Z,11.60
2019-04-07T07:24:07.173Z,11.80
2019-04-07T07:26:37.140Z,12.00
2019-04-07T07:29:06.791Z,12.20
2019-04-07T07:31:36.887Z,12.40
2019-04-07T07:34:09.312Z,12.50
2019-04-07T07:36:37.220Z,12.60
2019-04-07T07:39:11.388Z,12.70
2019-04-07T07:41:38.985Z,12.80
2019-04-07T07:44:09.604Z,12.90
2019-04-07T07:46:39.669Z,12.90
2019-04-07T07:49:09.223Z,13.00
2019-04-07T07:51:39.605Z,13.10
2019-04-07T07:54:09.935Z,13.30
2019-04-07T07:56:42.205Z,13.40
2019-04-07T07:59:12.478Z,13.50
2019-04-07T08:01:44.322Z,13.50
2019-04-07T08:04:12.675Z,13.60
2019-04-07T08:06:42.416Z,13.70
2019-04-07T08:09:15.198Z,13.80
2019-04-07T08:11:50.160Z,13.90
2019-04-07T08:14:19.900Z,13.90
2019-04-07T08:16:50.103Z,14.00
2019-04-07T08:19:20.107Z,14.10
2019-04-07T08:21:51.214Z,14.20
2019-04-07T08:24:20.900Z,14.20
2019-04-07T08:26:50.314Z,14.30
2019-04-07T08:29:20.342Z,14.40
2019-04-07T08:31:52.638Z,14.50
2019-04-07T08:34:21.120Z,14.60
2019-04-07T08:36:50.452Z,14.70
2019-04-07T08:39:25.145Z,14.90
2019-04-07T08:41:51.802Z,15.00
2019-04-07T08:44:21.578Z,15.10
2019-04-07T08:46:51.814Z,15.10
2019-04-07T08:49:24.013Z,15.20
2019-04-07T08:51:52.660Z,15.30
2019-04-07T08:54:23.543Z,15.30
2019-04-07T08:56:54.197Z,15.30
2019-04-07T08:59:24.039Z,15.40
2019-04-07T09:01:54.316Z,15.50
2019-04-07T09:04:24.179Z,15.60
2019-04-07T09:06:59.314Z,15.70
2019-04-07T09:09:32.820Z,15.80
2019-04-07T09:11:57.303Z,16.00
2019-04-07T09:14:27.228Z,16.10
2019-04-07T09:17:30.712Z,16.20
2019-04-07T09:20:22.234Z,16.20
2019-04-07T09:23:06.968Z,16.30
2019-04-07T09:26:01.605Z,16.40
2019-04-07T09:28:45.767Z,16.50
2019-04-07T09:31:46.340Z,16.50
2019-04-07T09:34:33.570Z,16.60
2019-04-07T09:37:10.766Z,16.70
2019-04-07T09:39:59.041Z,16.90
2019-04-07T09:42:29.509Z,17.00
2019-04-07T09:45:31.010Z,17.00
2019-04-07T09:48:21.800Z,17.10
2019-04-07T09:51:25.247Z,17.20
2019-04-07T09:54:23.399Z,17.30
2019-04-07T09:57:15.644Z,17.40
2019-04-07T10:00:25.155Z,17.50
2019-04-07T10:03:00.243Z,17.50
2019-04-07T10:08:49.787Z,17.70
2019-04-07T10:11:41.822Z,17.80
2019-04-07T10:14:27.151Z,17.80
2019-04-07T10:17:11.778Z,17.90
2019-04-07T10:20:22.885Z,18.10
2019-04-07T10:23:14.115Z,18.10
2019-04-07T10:25:50.665Z,18.20
2019-04-07T10:28:26.478Z,18.30
2019-04-07T10:31:14.686Z,18.30
2019-04-07T10:34:16.519Z,18.40
2019-04-07T10:37:02.661Z,18.50
2019-04-07T10:39:37.099Z,18.60
2019-04-07T10:42:43.766Z,18.70
2019-04-07T10:45:38.505Z,18.80
2019-04-07T10:48:33.323Z,19.00
2019-04-07T10:51:28.524Z,19.10
2019-04-07T10:54:11.451Z,19.30
2019-04-07T10:56:59.880Z,19.50
2019-04-07T10:59:57.861Z,19.60
2019-04-07T11:02:46.257Z,19.70
2019-04-07T11:05:34.505Z,19.80
2019-04-07T11:08:35.607Z,19.90
2019-04-07T11:11:24.539Z,20.10
2019-04-07T11:14:09.927Z,20.30
2019-04-07T11:16:54.912Z,20.50
2019-04-07T11:19:42.239Z,20.60
2019-04-07T11:22:29.643Z,20.80
2019-04-07T11:25:18.315Z,20.90
2019-04-07T11:28:06.784Z,21.00
2019-04-07T11:30:43.959Z,21.20
2019-04-07T11:33:24.589Z,21.40
2019-04-07T11:36:08.382Z,21.50
2019-04-07T11:39:00.491Z,21.60
2019-04-07T11:41:41.330Z,21.60
2019-04-07T11:44:29.293Z,21.90
2019-04-07T11:47:18.353Z,23.30
2019-04-07T11:50:10.465Z,26.70
2019-04-07T11:53:02.010Z,29.60
2019-04-07T11:55:47.539Z,31.70
2019-04-07T11:58:39.798Z,32.90
2019-04-07T12:01:39.497Z,34.00
2019-04-07T12:04:26.579Z,34.80
2019-04-07T12:07:06.587Z,35.20
2019-04-07T12:09:55.246Z,35.70
2019-04-07T12:12:42.336Z,36.40
2019-04-07T12:15:34.662Z,36.70
2019-04-07T12:18:21.959Z,37.30
2019-04-07T12:21:20.746Z,38.00
2019-04-07T12:23:58.352Z,38.00
2019-04-07T12:26:49.476Z,38.50
2019-04-07T12:29:33.100Z,38.70
2019-04-07T12:32:24.896Z,38.60
2019-04-07T12:35:06.302Z,38.50
2019-04-07T12:37:46.607Z,38.70
2019-04-07T12:40:32.950Z,38.80
2019-04-07T12:43:11.488Z,39.10
2019-04-07T12:46:01.194Z,39.50
2019-04-07T12:48:50.057Z,39.80
2019-04-07T12:51:40.023Z,39.80
2019-04-07T12:54:24.806Z,39.90
2019-04-07T12:57:15.625Z,40.00
2019-04-07T13:00:01.831Z,40.30
2019-04-07T13:02:54.372Z,39.20
2019-04-07T13:05:34.609Z,39.50
2019-04-07T13:08:26.197Z,40.30
2019-04-07T13:11:10.651Z,40.80
2019-04-07T13:14:08.719Z,40.30
2019-04-07T13:17:02.768Z,40.00
2019-04-07T13:19:46.043Z,40.20
2019-04-07T13:22:51.823Z,39.70
2019-04-07T13:25:53.210Z,39.50
2019-04-07T13:28:26.058Z,39.50
2019-04-07T13:31:13.509Z,38.50
2019-04-07T13:34:02.987Z,38.90
2019-04-07T13:37:20.013Z,37.80
2019-04-07T13:40:10.052Z,34.90
2019-04-07T13:42:50.882Z,31.30
2019-04-07T13:45:56.881Z,30.20
2019-04-07T13:48:51.556Z,29.70
2019-04-07T13:51:31.308Z,28.70
2019-04-07T13:54:15.272Z,27.90
2019-04-07T13:57:10.173Z,28.00
2019-04-07T14:00:05.305Z,28.80
2019-04-07T14:03:05.887Z,29.80
2019-04-07T14:05:57.982Z,29.30
2019-04-07T14:08:41.595Z,29.40
2019-04-07T14:11:29.589Z,29.20
2019-04-07T14:14:37.193Z,31.40
2019-04-07T14:17:19.703Z,32.60
2019-04-07T14:20:01.613Z,31.70
2019-04-07T14:22:39.944Z,29.70
2019-04-07T14:25:27.937Z,27.90
2019-04-07T14:28:20.116Z,26.70
2019-04-07T14:31:09.311Z,26.10
2019-04-07T14:34:00.146Z,26.60
2019-04-07T14:37:01.163Z,26.60
2019-04-07T14:40:05.172Z,26.10
2019-04-07T14:42:57.118Z,25.70
2019-04-07T14:45:51.922Z,25.50
2019-04-07T14:48:44.768Z,25.40
2019-04-07T14:51:30.608Z,25.60
2019-04-07T14:54:22.808Z,25.50
2019-04-07T14:57:01.052Z,25.20
2019-04-07T14:59:45.002Z,24.70
2019-04-07T15:02:15.702Z,24.00
2019-04-07T15:04:52.104Z,23.50
2019-04-07T15:07:37.905Z,23.30
2019-04-07T15:10:16.513Z,22.90
2019-04-07T15:12:47.481Z,22.80
2019-04-07T15:15:17.118Z,22.70
2019-04-07T15:17:46.549Z,22.40
2019-04-07T15:20:15.943Z,22.10
2019-04-07T15:22:49.404Z,21.90
2019-04-07T15:25:29.674Z,21.70
2019-04-07T15:28:02.425Z,21.40
2019-04-07T15:30:33.344Z,21.20
2019-04-07T15:33:07.317Z,21.10
2019-04-07T15:35:42.615Z,21.00
2019-04-07T15:38:12.987Z,21.00
2019-04-07T15:40:42.856Z,20.90
2019-04-07T15:43:12.717Z,21.00
2019-04-07T15:45:44.395Z,21.10
2019-04-07T15:48:13.685Z,21.20
2019-04-07T15:50:43.211Z,21.20
2019-04-07T15:53:14.986Z,21.30
2019-04-07T15:55:50.982Z,21.40
2019-04-07T15:58:15.056Z,21.30
2019-04-07T16:00:45.096Z,21.10
2019-04-07T16:03:39.228Z,20.90
2019-04-07T16:06:21.891Z,20.70
2019-04-07T16:08:59.929Z,20.60
2019-04-07T16:11:30.342Z,20.40
2019-04-07T16:14:09.088Z,20.30
2019-04-07T16:16:37.214Z,20.20
2019-04-07T16:19:10.873Z,20.10
2019-04-07T16:21:41.435Z,20.00
2019-04-07T16:24:09.456Z,19.80
2019-04-07T16:26:38.836Z,19.70
2019-04-07T16:29:08.513Z,19.60
2019-04-07T16:31:37.888Z,19.50
2019-04-07T16:34:08.856Z,19.50
2019-04-07T16:36:41.367Z,19.40
2019-04-07T16:39:13.533Z,19.40
2019-04-07T16:41:45.334Z,19.30
2019-04-07T16:44:13.958Z,19.30
2019-04-07T16:46:43.730Z,19.20
2019-04-07T16:49:13.997Z,19.10
2019-04-07T16:51:44.840Z,19.00
2019-04-07T16:54:14.394Z,18.90
2019-04-07T16:56:44.163Z,18.80
2019-04-07T16:59:13.645Z,18.70
2019-04-07T17:01:43.366Z,18.70
2019-04-07T17:04:12.925Z,18.60
2019-04-07T17:06:42.227Z,18.50
2019-04-07T17:09:17.987Z,18.50
2019-04-07T17:11:47.545Z,18.40
2019-04-07T17:14:16.888Z,18.40
2019-04-07T17:16:47.165Z,18.30
2019-04-07T17:19:16.546Z,18.30
2019-04-07T17:21:45.801Z,18.20
2019-04-07T17:24:15.078Z,18.10
2019-04-07T17:26:51.791Z,18.10
2019-04-07T17:29:22.306Z,18.00
2019-04-07T17:31:52.393Z,18.00
2019-04-07T17:34:21.821Z,17.90
2019-04-07T17:36:55.582Z,17.90
2019-04-07T17:39:44.988Z,17.80
2019-04-07T17:42:15.647Z,17.70
2019-04-07T17:45:11.583Z,17.60
2019-04-07T17:48:12.820Z,17.40
2019-04-07T17:51:06.013Z,17.30
2019-04-07T17:53:50.611Z,17.30
2019-04-07T17:56:38.167Z,17.20
2019-04-07T17:59:17.097Z,17.10
2019-04-07T18:02:06.435Z,17.00
2019-04-07T18:05:13.124Z,17.00
2019-04-07T18:07:59.182Z,17.00
2019-04-07T18:10:59.523Z,16.90
2019-04-07T18:13:57.657Z,16.90
2019-04-07T18:16:44.659Z,16.80
2019-04-07T18:19:33.759Z,16.80
2019-04-07T18:22:23.519Z,16.70
2019-04-07T18:25:17.344Z,16.70
2019-04-07T18:28:06.734Z,16.60
2019-04-07T18:30:52.612Z,16.60
2019-04-07T18:33:38.788Z,16.60
2019-04-07T18:36:24.651Z,16.60
2019-04-07T18:39:07.888Z,16.60
2019-04-07T18:41:55.044Z,16.60
2019-04-07T18:44:43.230Z,16.60
2019-04-07T18:47:52.276Z,16.50
2019-04-07T18:50:39.658Z,16.50
2019-04-07T18:53:17.754Z,16.50
2019-04-07T18:56:01.395Z,16.50
2019-04-07T18:58:51.659Z,16.50
2019-04-07T19:01:28.522Z,16.50
2019-04-07T19:04:17.258Z,16.50
2019-04-07T19:07:00.015Z,16.50
2019-04-07T19:09:47.640Z,16.50
2019-04-07T19:12:49.201Z,16.50
2019-04-07T19:15:45.375Z,16.50
2019-04-07T19:18:34.493Z,16.40
2019-04-07T19:21:23.411Z,16.40
2019-04-07T19:24:21.582Z,16.30
2019-04-07T19:27:16.072Z,16.20
2019-04-07T19:29:58.441Z,16.10
2019-04-07T19:32:46.969Z,16.10
2019-04-07T19:35:25.054Z,16.00
2019-04-07T19:38:07.311Z,15.90
2019-04-07T19:40:59.301Z,15.90
2019-04-07T19:44:00.718Z,15.80
2019-04-07T19:46:43.498Z,15.80
2019-04-07T19:52:36.222Z,15.80
2019-04-07T19:55:28.725Z,15.80
2019-04-07T19:58:36.061Z,15.80
2019-04-07T20:01:29.268Z,15.70
2019-04-07T20:04:22.805Z,15.70
2019-04-07T20:07:24.311Z,15.70
2019-04-07T20:10:16.448Z,15.80
2019-04-07T20:13:21.961Z,15.80
2019-04-07T20:16:12.860Z,15.70
2019-04-07T20:18:59.397Z,15.70
2019-04-07T20:21:55.306Z,15.70
2019-04-07T20:24:36.697Z,15.70
2019-04-07T20:27:11.213Z,15.70
2019-04-07T20:29:58.422Z,15.60
2019-04-07T20:32:34.738Z,15.60
2019-04-07T20:35:23.814Z,15.50
2019-04-07T20:38:15.922Z,15.50
2019-04-07T20:40:57.599Z,15.50
2019-04-07T20:43:53.952Z,15.50
2019-04-07T20:46:59.362Z,15.40
2019-04-07T20:50:05.526Z,15.40
2019-04-07T20:52:44.957Z,15.40
2019-04-07T20:55:37.788Z,15.50
2019-04-07T20:58:42.152Z,15.50
2019-04-07T21:01:11.249Z,15.50
2019-04-07T21:03:57.946Z,15.50
2019-04-07T21:06:51.596Z,15.50
2019-04-07T21:09:43.767Z,15.50
2019-04-07T21:12:48.371Z,15.50
2019-04-07T21:15:35.818Z,15.50
2019-04-07T21:18:23.545Z,15.50
2019-04-07T21:21:01.836Z,15.50
2019-04-07T21:23:50.868Z,15.50
2019-04-07T21:26:29.787Z,15.50
2019-04-07T21:29:08.145Z,15.50
2019-04-07T21:32:09.995Z,15.50
2019-04-07T21:34:56.182Z,15.40
2019-04-07T21:37:49.049Z,15.40
2019-04-07T21:40:46.145Z,15.40
2019-04-07T21:43:29.620Z,15.40
2019-04-07T21:46:13.015Z,15.30
2019-04-07T21:48:48.806Z,15.30
2019-04-07T21:51:35.868Z,15.30
2019-04-07T21:54:12.011Z,15.30
2019-04-07T21:57:17.222Z,15.20
2019-04-07T22:00:09.242Z,15.10
2019-04-07T22:03:01.332Z,15.10
2019-04-07T22:06:00.603Z,15.00
2019-04-07T22:08:41.996Z,15.00
2019-04-07T22:11:09.261Z,15.00
2019-04-07T22:13:38.713Z,15.00
2019-04-07T22:16:08.344Z,15.00
2019-04-07T22:18:39.415Z,15.00
2019-04-07T22:21:09.725Z,15.00
2019-04-07T22:23:40.147Z,14.90
2019-04-07T22:26:16.215Z,14.90
2019-04-07T22:28:41.493Z,14.90
2019-04-07T22:31:14.337Z,14.90
2019-04-07T22:33:43.291Z,14.80
2019-04-07T22:36:14.276Z,14.80
2019-04-07T22:38:44.394Z,14.70
2019-04-07T22:41:13.675Z,14.70
2019-04-07T22:43:43.452Z,14.70
2019-04-07T22:46:19.471Z,14.60
2019-04-07T22:48:43.882Z,14.50
2019-04-07T22:51:13.787Z,14.50
2019-04-07T22:53:44.099Z,14.50
2019-04-07T22:56:13.986Z,14.40
2019-04-07T22:58:44.471Z,14.50
2019-04-07T23:01:14.328Z,14.50
2019-04-07T23:03:43.844Z,14.50
2019-04-07T23:06:13.451Z,14.50
2019-04-07T23:08:43.261Z,14.50
2019-04-07T23:11:12.868Z,14.50
2019-04-07T23:13:42.618Z,14.50
2019-04-07T23:16:15.109Z,14.40
2019-04-07T23:18:42.868Z,14.40
2019-04-07T23:21:12.615Z,14.40
2019-04-07T23:23:42.171Z,14.40
2019-04-07T23:26:11.454Z,14.40
2019-04-07T23:28:42.514Z,14.40
2019-04-07T23:31:11.846Z,14.30
2019-04-07T23:33:41.778Z,14.30
2019-04-07T23:36:11.574Z,14.30
2019-04-07T23:38:41.154Z,14.30
2019-04-07T23:41:10.364Z,14.30
2019-04-07T23:43:40.522Z,14.20
2019-04-07T23:46:19.813Z,14.30
2019-04-07T23:48:40.739Z,14.20
2019-04-07T23:51:10.214Z,14.20
2019-04-07T23:54:11.137Z,14.10
2019-04-07T23:56:43.638Z,14.00
2019-04-07T23:59:14.609Z,13.90
